sensor_id;sensor_type;location;lat;lon;timestamp;temperature;humidity
8178;DHT22;4130;48.740;9.132;2022-07-22T00:01:14;16.70;99.90
8178;DHT22;4130;48.740;9.132;2022-07-22T00:03:41;16.70;99.90
8178;DHT22;4130;48.740;9.132;2022-07-22T00:06:08;16.70;99.90
8178;DHT22;4130;48.740;9.132;2022-07-22T00:08:35;16.60;99.90
8178;DHT22;4130;48.740;9.132;2022-07-22T00:11:02;16.60;99.90
8178;DHT22;4130;48.740;9.132;2022-07-22T00:13:31;16.60;99.90
8178;DHT22;4130;48.740;9.132;2022-07-22T00:15:58;16.60;99.90
8178;DHT22;4130;48.740;9.132;2022-07-22T00:18:24;16.60;99.90
8178;DHT22;4130;48.740;9.132;2022-07-22T00:20:51;16.60;99.90
8178;DHT22;4130;48.740;9.132;2022-07-22T00:23:18;16.60;99.90
8178;DHT22;4130;48.740;9.132;2022-07-22T00:25:45;16.50;99.90
8178;DHT22;4130;48.740;9.132;2022-07-22T00:28:14;16.50;99.90
8178;DHT22;4130;48.740;9.132;2022-07-22T00:30:42;16.50;99.90
8178;DHT22;4130;48.740;9.132;2022-07-22T00:33:09;16.40;99.90
8178;DHT22;4130;48.740;9.132;2022-07-22T00:35:36;16.40;99.90
8178;DHT22;4130;48.740;9.132;2022-07-22T00:38:02;16.40;99.90
8178;DHT22;4130;48.740;9.132;2022-07-22T00:40:29;16.30;99.90
8178;DHT22;4130;48.740;9.132;2022-07-22T00:42:56;16.30;99.90
8178;DHT22;4130;48.740;9.132;2022-07-22T00:45:23;16.30;99.90
8178;DHT22;4130;48.740;9.132;2022-07-22T00:47:51;16.30;99.90
8178;DHT22;4130;48.740;9.132;2022-07-22T00:50:19;16.20;99.90
8178;DHT22;4130;48.740;9.132;2022-07-22T00:52:47;16.20;99.90
8178;DHT22;4130;48.740;9.132;2022-07-22T00:55:14;16.20;99.90
8178;DHT22;4130;48.740;9.132;2022-07-22T00:57:42;16.10;99.90
8178;DHT22;4130;48.740;9.132;2022-07-22T01:00:12;16.10;99.90
8178;DHT22;4130;48.740;9.132;2022-07-22T01:02:40;16.10;99.90
8178;DHT22;4130;48.740;9.132;2022-07-22T01:05:08;16.10;99.90
8178;DHT22;4130;48.740;9.132;2022-07-22T01:07:36;16.10;99.90
8178;DHT22;4130;48.740;9.132;2022-07-22T01:10:04;16.00;99.90
8178;DHT22;4130;48.740;9.132;2022-07-22T01:12:31;16.00;99.90
8178;DHT22;4130;48.740;9.132;2022-07-22T01:14:58;16.00;99.90
8178;DHT22;4130;48.740;9.132;2022-07-22T01:17:25;16.00;99.90
8178;DHT22;4130;48.740;9.132;2022-07-22T01:19:52;16.00;99.90
8178;DHT22;4130;48.740;9.132;2022-07-22T01:22:21;16.00;99.90
8178;DHT22;4130;48.740;9.132;2022-07-22T01:24:48;15.90;99.90
8178;DHT22;4130;48.740;9.132;2022-07-22T01:27:14;16.00;99.90
8178;DHT22;4130;48.740;9.132;2022-07-22T01:29:41;16.00;99.90
8178;DHT22;4130;48.740;9.132;2022-07-22T01:32:08;15.90;99.90
8178;DHT22;4130;48.740;9.132;2022-07-22T01:34:35;15.90;99.90
8178;DHT22;4130;48.740;9.132;2022-07-22T01:37:02;15.90;99.90
8178;DHT22;4130;48.740;9.132;2022-07-22T01:39:30;15.90;99.90
8178;DHT22;4130;48.740;9.132;2022-07-22T01:41:57;15.80;99.90
8178;DHT22;4130;48.740;9.132;2022-07-22T01:44:23;15.80;99.90
8178;DHT22;4130;48.740;9.132;2022-07-22T01:46:50;15.80;99.90
8178;DHT22;4130;48.740;9.132;2022-07-22T01:49:19;15.80;99.90
8178;DHT22;4130;48.740;9.132;2022-07-22T01:51:46;15.80;99.90
8178;DHT22;4130;48.740;9.132;2022-07-22T01:54:13;15.70;99.90
8178;DHT22;4130;48.740;9.132;2022-07-22T01:56:41;15.70;99.90
8178;DHT22;4130;48.740;9.132;2022-07-22T01:59:08;15.70;99.90
8178;DHT22;4130;48.740;9.132;2022-07-22T02:01:35;15.70;99.90
8178;DHT22;4130;48.740;9.132;2022-07-22T02:04:02;15.70;99.90
8178;DHT22;4130;48.740;9.132;2022-07-22T02:06:29;15.60;99.90
8178;DHT22;4130;48.740;9.132;2022-07-22T02:08:56;15.60;99.90
8178;DHT22;4130;48.740;9.132;2022-07-22T02:11:24;15.60;99.90
8178;DHT22;4130;48.740;9.132;2022-07-22T02:13:52;15.60;99.90
8178;DHT22;4130;48.740;9.132;2022-07-22T02:16:19;15.50;99.90
8178;DHT22;4130;48.740;9.132;2022-07-22T02:18:46;15.60;99.90
8178;DHT22;4130;48.740;9.132;2022-07-22T02:21:13;15.50;99.90
8178;DHT22;4130;48.740;9.132;2022-07-22T02:23:39;15.40;99.90
8178;DHT22;4130;48.740;9.132;2022-07-22T02:26:06;15.40;99.90
8178;DHT22;4130;48.740;9.132;2022-07-22T02:28:33;15.50;99.90
8178;DHT22;4130;48.740;9.132;2022-07-22T02:31:02;15.40;99.90
8178;DHT22;4130;48.740;9.132;2022-07-22T02:33:30;15.40;99.90
8178;DHT22;4130;48.740;9.132;2022-07-22T02:35:57;15.20;99.90
8178;DHT22;4130;48.740;9.132;2022-07-22T02:38:24;15.30;99.90
8178;DHT22;4130;48.740;9.132;2022-07-22T02:40:51;15.30;99.90
8178;DHT22;4130;48.740;9.132;2022-07-22T02:43:17;15.30;99.90
8178;DHT22;4130;48.740;9.132;2022-07-22T02:45:45;15.30;99.90
8178;DHT22;4130;48.740;9.132;2022-07-22T02:48:13;15.30;99.90
8178;DHT22;4130;48.740;9.132;2022-07-22T02:50:45;15.50;99.90
8178;DHT22;4130;48.740;9.132;2022-07-22T02:53:12;15.30;99.90
8178;DHT22;4130;48.740;9.132;2022-07-22T02:55:39;15.30;99.90
8178;DHT22;4130;48.740;9.132;2022-07-22T02:58:06;15.20;99.90
8178;DHT22;4130;48.740;9.132;2022-07-22T03:00:33;15.20;99.90
8178;DHT22;4130;48.740;9.132;2022-07-22T03:03:01;15.10;99.90
8178;DHT22;4130;48.740;9.132;2022-07-22T03:05:29;15.20;99.90
8178;DHT22;4130;48.740;9.132;2022-07-22T03:07:56;15.10;99.90
8178;DHT22;4130;48.740;9.132;2022-07-22T03:10:23;15.10;99.90
8178;DHT22;4130;48.740;9.132;2022-07-22T03:12:50;15.00;99.90
8178;DHT22;4130;48.740;9.132;2022-07-22T03:15:16;15.00;99.90
8178;DHT22;4130;48.740;9.132;2022-07-22T03:17:43;15.00;99.90
8178;DHT22;4130;48.740;9.132;2022-07-22T03:20:11;15.00;99.90
8178;DHT22;4130;48.740;9.132;2022-07-22T03:22:44;15.00;99.90
8178;DHT22;4130;48.740;9.132;2022-07-22T03:25:11;15.00;99.90
8178;DHT22;4130;48.740;9.132;2022-07-22T03:27:38;15.00;99.90
8178;DHT22;4130;48.740;9.132;2022-07-22T03:30:06;15.00;99.90
8178;DHT22;4130;48.740;9.132;2022-07-22T03:32:33;14.90;99.90
8178;DHT22;4130;48.740;9.132;2022-07-22T03:35:00;14.90;99.90
8178;DHT22;4130;48.740;9.132;2022-07-22T03:37:27;14.90;99.90
8178;DHT22;4130;48.740;9.132;2022-07-22T03:39:55;14.80;99.90
8178;DHT22;4130;48.740;9.132;2022-07-22T03:42:22;14.80;99.90
8178;DHT22;4130;48.740;9.132;2022-07-22T03:44:49;14.80;99.90
8178;DHT22;4130;48.740;9.132;2022-07-22T03:47:18;14.80;99.90
8178;DHT22;4130;48.740;9.132;2022-07-22T03:49:45;14.80;99.90
8178;DHT22;4130;48.740;9.132;2022-07-22T03:52:12;14.90;99.90
8178;DHT22;4130;48.740;9.132;2022-07-22T03:54:39;14.70;99.90
8178;DHT22;4130;48.740;9.132;2022-07-22T03:57:07;15.00;99.90
8178;DHT22;4130;48.740;9.132;2022-07-22T03:59:34;14.90;99.90
8178;DHT22;4130;48.740;9.132;2022-07-22T04:02:01;14.80;99.90
8178;DHT22;4130;48.740;9.132;2022-07-22T04:04:28;14.90;99.90
8178;DHT22;4130;48.740;9.132;2022-07-22T04:06:54;14.80;99.90
8178;DHT22;4130;48.740;9.132;2022-07-22T04:09:22;14.80;99.90
8178;DHT22;4130;48.740;9.132;2022-07-22T04:11:49;14.80;99.90
8178;DHT22;4130;48.740;9.132;2022-07-22T04:14:17;14.80;99.90
8178;DHT22;4130;48.740;9.132;2022-07-22T04:16:44;14.80;99.90
8178;DHT22;4130;48.740;9.132;2022-07-22T04:19:11;14.90;99.90
8178;DHT22;4130;48.740;9.132;2022-07-22T04:21:38;14.90;99.90
8178;DHT22;4130;48.740;9.132;2022-07-22T04:24:05;15.00;99.90
8178;DHT22;4130;48.740;9.132;2022-07-22T04:26:32;14.90;99.90
8178;DHT22;4130;48.740;9.132;2022-07-22T04:28:59;15.00;99.90
8178;DHT22;4130;48.740;9.132;2022-07-22T04:31:28;15.00;99.90
8178;DHT22;4130;48.740;9.132;2022-07-22T04:33:54;15.00;99.90
8178;DHT22;4130;48.740;9.132;2022-07-22T04:36:21;15.10;99.90
8178;DHT22;4130;48.740;9.132;2022-07-22T04:38:48;15.10;99.90
8178;DHT22;4130;48.740;9.132;2022-07-22T04:41:15;15.10;99.90
8178;DHT22;4130;48.740;9.132;2022-07-22T04:43:42;15.20;99.90
8178;DHT22;4130;48.740;9.132;2022-07-22T04:46:09;15.10;99.90
8178;DHT22;4130;48.740;9.132;2022-07-22T04:48:37;15.20;99.90
8178;DHT22;4130;48.740;9.132;2022-07-22T04:51:04;15.20;99.90
8178;DHT22;4130;48.740;9.132;2022-07-22T04:53:31;15.20;99.90
8178;DHT22;4130;48.740;9.132;2022-07-22T04:55:58;15.30;99.90
8178;DHT22;4130;48.740;9.132;2022-07-22T04:58:25;15.30;99.90
8178;DHT22;4130;48.740;9.132;2022-07-22T05:00:52;15.40;99.90
8178;DHT22;4130;48.740;9.132;2022-07-22T05:03:19;15.40;99.90
8178;DHT22;4130;48.740;9.132;2022-07-22T05:05:47;15.40;99.90
8178;DHT22;4130;48.740;9.132;2022-07-22T05:08:14;15.50;99.90
8178;DHT22;4130;48.740;9.132;2022-07-22T05:10:41;15.50;99.90
8178;DHT22;4130;48.740;9.132;2022-07-22T05:13:07;15.60;99.90
8178;DHT22;4130;48.740;9.132;2022-07-22T05:15:34;15.60;99.90
8178;DHT22;4130;48.740;9.132;2022-07-22T05:18:01;15.80;99.90
8178;DHT22;4130;48.740;9.132;2022-07-22T05:20:28;15.90;99.90
8178;DHT22;4130;48.740;9.132;2022-07-22T05:22:56;15.90;99.90
8178;DHT22;4130;48.740;9.132;2022-07-22T05:25:24;16.00;99.90
8178;DHT22;4130;48.740;9.132;2022-07-22T05:27:52;16.00;99.90
8178;DHT22;4130;48.740;9.132;2022-07-22T05:30:19;16.10;99.90
8178;DHT22;4130;48.740;9.132;2022-07-22T05:32:46;16.20;99.90
8178;DHT22;4130;48.740;9.132;2022-07-22T05:35:13;16.20;99.90
8178;DHT22;4130;48.740;9.132;2022-07-22T05:37:40;16.30;99.90
8178;DHT22;4130;48.740;9.132;2022-07-22T05:40:10;16.40;99.90
8178;DHT22;4130;48.740;9.132;2022-07-22T05:42:37;16.50;99.90
8178;DHT22;4130;48.740;9.132;2022-07-22T05:45:04;16.60;99.90
8178;DHT22;4130;48.740;9.132;2022-07-22T05:47:31;16.60;99.90
8178;DHT22;4130;48.740;9.132;2022-07-22T05:49:58;16.70;99.90
8178;DHT22;4130;48.740;9.132;2022-07-22T05:52:25;16.70;99.90
8178;DHT22;4130;48.740;9.132;2022-07-22T05:54:52;16.80;99.90
8178;DHT22;4130;48.740;9.132;2022-07-22T05:57:20;16.90;99.90
8178;DHT22;4130;48.740;9.132;2022-07-22T05:59:47;17.00;99.90
8178;DHT22;4130;48.740;9.132;2022-07-22T06:02:14;17.10;99.90
8178;DHT22;4130;48.740;9.132;2022-07-22T06:04:40;17.20;99.90
8178;DHT22;4130;48.740;9.132;2022-07-22T06:07:07;17.30;99.90
8178;DHT22;4130;48.740;9.132;2022-07-22T06:09:34;17.30;99.90
8178;DHT22;4130;48.740;9.132;2022-07-22T06:12:01;17.40;99.90
8178;DHT22;4130;48.740;9.132;2022-07-22T06:14:29;17.50;99.90
8178;DHT22;4130;48.740;9.132;2022-07-22T06:16:56;17.60;99.90
8178;DHT22;4130;48.740;9.132;2022-07-22T06:19:23;17.70;99.90
8178;DHT22;4130;48.740;9.132;2022-07-22T06:21:50;17.80;99.90
8178;DHT22;4130;48.740;9.132;2022-07-22T06:24:17;17.80;99.90
8178;DHT22;4130;48.740;9.132;2022-07-22T06:26:44;17.90;99.90
8178;DHT22;4130;48.740;9.132;2022-07-22T06:29:11;18.00;99.90
8178;DHT22;4130;48.740;9.132;2022-07-22T06:31:40;18.20;99.90
8178;DHT22;4130;48.740;9.132;2022-07-22T06:34:07;18.20;99.90
8178;DHT22;4130;48.740;9.132;2022-07-22T06:36:34;18.30;99.90
8178;DHT22;4130;48.740;9.132;2022-07-22T06:39:01;18.50;99.90
8178;DHT22;4130;48.740;9.132;2022-07-22T06:41:28;18.50;99.90
8178;DHT22;4130;48.740;9.132;2022-07-22T06:43:54;18.60;99.90
8178;DHT22;4130;48.740;9.132;2022-07-22T06:46:21;18.80;99.90
8178;DHT22;4130;48.740;9.132;2022-07-22T06:48:50;18.90;99.90
8178;DHT22;4130;48.740;9.132;2022-07-22T06:51:17;19.00;99.90
8178;DHT22;4130;48.740;9.132;2022-07-22T06:53:44;19.10;99.90
8178;DHT22;4130;48.740;9.132;2022-07-22T06:56:11;19.20;99.90
8178;DHT22;4130;48.740;9.132;2022-07-22T06:58:37;19.30;99.90
8178;DHT22;4130;48.740;9.132;2022-07-22T07:01:04;19.40;99.90
8178;DHT22;4130;48.740;9.132;2022-07-22T07:03:31;19.60;99.90
8178;DHT22;4130;48.740;9.132;2022-07-22T07:05:59;19.70;99.90
8178;DHT22;4130;48.740;9.132;2022-07-22T07:08:27;19.80;99.90
8178;DHT22;4130;48.740;9.132;2022-07-22T07:10:54;20.10;99.90
8178;DHT22;4130;48.740;9.132;2022-07-22T07:13:21;20.50;99.90
8178;DHT22;4130;48.740;9.132;2022-07-22T07:15:48;20.90;99.90
8178;DHT22;4130;48.740;9.132;2022-07-22T07:18:14;21.50;99.90
8178;DHT22;4130;48.740;9.132;2022-07-22T07:20:41;22.10;99.90
8178;DHT22;4130;48.740;9.132;2022-07-22T07:23:10;22.80;99.90
8178;DHT22;4130;48.740;9.132;2022-07-22T07:25:37;23.30;99.90
8178;DHT22;4130;48.740;9.132;2022-07-22T07:28:04;23.80;99.90
8178;DHT22;4130;48.740;9.132;2022-07-22T07:30:31;24.10;99.90
8178;DHT22;4130;48.740;9.132;2022-07-22T07:32:58;24.30;99.90
8178;DHT22;4130;48.740;9.132;2022-07-22T07:35:26;24.60;99.90
8178;DHT22;4130;48.740;9.132;2022-07-22T07:37:53;25.00;99.90
8178;DHT22;4130;48.740;9.132;2022-07-22T07:40:21;25.40;99.90
8178;DHT22;4130;48.740;9.132;2022-07-22T07:42:48;26.20;99.90
8178;DHT22;4130;48.740;9.132;2022-07-22T07:45:15;26.60;99.90
8178;DHT22;4130;48.740;9.132;2022-07-22T07:47:42;27.00;99.90
8178;DHT22;4130;48.740;9.132;2022-07-22T07:50:09;27.60;99.90
8178;DHT22;4130;48.740;9.132;2022-07-22T07:52:37;28.20;99.90
8178;DHT22;4130;48.740;9.132;2022-07-22T07:55:05;28.20;99.90
8178;DHT22;4130;48.740;9.132;2022-07-22T07:57:34;28.50;99.90
8178;DHT22;4130;48.740;9.132;2022-07-22T08:00:01;29.10;99.90
8178;DHT22;4130;48.740;9.132;2022-07-22T08:02:29;29.50;99.90
8178;DHT22;4130;48.740;9.132;2022-07-22T08:04:56;29.60;99.00
8178;DHT22;4130;48.740;9.132;2022-07-22T08:07:23;29.40;98.90
8178;DHT22;4130;48.740;9.132;2022-07-22T08:09:49;29.10;98.50
8178;DHT22;4130;48.740;9.132;2022-07-22T08:12:16;28.90;98.60
8178;DHT22;4130;48.740;9.132;2022-07-22T08:14:45;28.80;99.40
8178;DHT22;4130;48.740;9.132;2022-07-22T08:17:11;28.90;99.30
8178;DHT22;4130;48.740;9.132;2022-07-22T08:19:38;28.70;98.80
8178;DHT22;4130;48.740;9.132;2022-07-22T08:22:05;28.30;98.50
8178;DHT22;4130;48.740;9.132;2022-07-22T08:24:32;28.50;99.20
8178;DHT22;4130;48.740;9.132;2022-07-22T08:26:59;28.50;99.10
8178;DHT22;4130;48.740;9.132;2022-07-22T08:29:26;28.80;98.50
8178;DHT22;4130;48.740;9.132;2022-07-22T08:31:54;29.00;99.20
8178;DHT22;4130;48.740;9.132;2022-07-22T08:34:21;29.40;98.20
8178;DHT22;4130;48.740;9.132;2022-07-22T08:36:48;29.40;98.40
8178;DHT22;4130;48.740;9.132;2022-07-22T08:39:14;29.80;98.20
8178;DHT22;4130;48.740;9.132;2022-07-22T08:41:41;29.90;97.50
8178;DHT22;4130;48.740;9.132;2022-07-22T08:44:09;30.10;97.30
8178;DHT22;4130;48.740;9.132;2022-07-22T08:46:36;30.20;97.90
8178;DHT22;4130;48.740;9.132;2022-07-22T08:49:05;30.00;97.00
8178;DHT22;4130;48.740;9.132;2022-07-22T08:51:32;29.30;96.30
8178;DHT22;4130;48.740;9.132;2022-07-22T08:53:59;29.20;97.00
8178;DHT22;4130;48.740;9.132;2022-07-22T08:56:26;29.40;96.90
8178;DHT22;4130;48.740;9.132;2022-07-22T08:58:53;29.30;97.00
8178;DHT22;4130;48.740;9.132;2022-07-22T09:01:20;29.10;96.80
8178;DHT22;4130;48.740;9.132;2022-07-22T09:03:49;29.10;96.80
8178;DHT22;4130;48.740;9.132;2022-07-22T09:06:18;29.40;96.70
8178;DHT22;4130;48.740;9.132;2022-07-22T09:08:56;29.60;96.60
8178;DHT22;4130;48.740;9.132;2022-07-22T09:11:24;29.60;96.50
8178;DHT22;4130;48.740;9.132;2022-07-22T09:13:52;30.00;96.70
8178;DHT22;4130;48.740;9.132;2022-07-22T09:16:40;30.40;96.80
8178;DHT22;4130;48.740;9.132;2022-07-22T09:19:07;30.50;95.40
8178;DHT22;4130;48.740;9.132;2022-07-22T09:21:37;31.00;95.50
8178;DHT22;4130;48.740;9.132;2022-07-22T09:24:05;31.00;94.80
8178;DHT22;4130;48.740;9.132;2022-07-22T09:26:33;30.70;94.50
8178;DHT22;4130;48.740;9.132;2022-07-22T09:29:00;30.60;94.60
8178;DHT22;4130;48.740;9.132;2022-07-22T09:31:29;30.70;95.30
8178;DHT22;4130;48.740;9.132;2022-07-22T09:33:56;30.70;94.40
8178;DHT22;4130;48.740;9.132;2022-07-22T09:36:23;30.90;95.10
8178;DHT22;4130;48.740;9.132;2022-07-22T09:38:52;30.70;93.50
8178;DHT22;4130;48.740;9.132;2022-07-22T09:41:19;30.70;93.50
8178;DHT22;4130;48.740;9.132;2022-07-22T09:43:46;30.70;94.10
8178;DHT22;4130;48.740;9.132;2022-07-22T09:46:13;31.00;94.00
8178;DHT22;4130;48.740;9.132;2022-07-22T09:48:40;30.70;93.30
8178;DHT22;4130;48.740;9.132;2022-07-22T09:51:08;30.80;93.80
8178;DHT22;4130;48.740;9.132;2022-07-22T09:53:35;31.30;93.40
8178;DHT22;4130;48.740;9.132;2022-07-22T09:56:05;31.50;92.90
8178;DHT22;4130;48.740;9.132;2022-07-22T09:58:32;31.70;93.00
8178;DHT22;4130;48.740;9.132;2022-07-22T10:01:03;31.40;92.90
8178;DHT22;4130;48.740;9.132;2022-07-22T10:03:33;31.80;92.80
8178;DHT22;4130;48.740;9.132;2022-07-22T10:06:03;32.10;92.20
8178;DHT22;4130;48.740;9.132;2022-07-22T10:08:32;32.00;91.80
8178;DHT22;4130;48.740;9.132;2022-07-22T10:11:00;31.90;90.90
8178;DHT22;4130;48.740;9.132;2022-07-22T10:13:29;32.10;91.90
8178;DHT22;4130;48.740;9.132;2022-07-22T10:15:57;32.20;91.10
8178;DHT22;4130;48.740;9.132;2022-07-22T10:18:24;32.70;91.10
8178;DHT22;4130;48.740;9.132;2022-07-22T10:21:01;32.70;91.20
8178;DHT22;4130;48.740;9.132;2022-07-22T10:23:28;32.50;91.70
8178;DHT22;4130;48.740;9.132;2022-07-22T10:25:56;32.50;91.50
8178;DHT22;4130;48.740;9.132;2022-07-22T10:28:25;32.50;91.50
8178;DHT22;4130;48.740;9.132;2022-07-22T10:31:07;32.80;91.80
8178;DHT22;4130;48.740;9.132;2022-07-22T10:33:44;33.00;90.90
8178;DHT22;4130;48.740;9.132;2022-07-22T10:36:11;32.70;90.10
8178;DHT22;4130;48.740;9.132;2022-07-22T10:41:32;32.20;91.20
8178;DHT22;4130;48.740;9.132;2022-07-22T10:44:00;32.20;91.50
8178;DHT22;4130;48.740;9.132;2022-07-22T10:46:47;32.30;90.70
8178;DHT22;4130;48.740;9.132;2022-07-22T10:49:15;32.70;89.50
8178;DHT22;4130;48.740;9.132;2022-07-22T10:52:10;32.60;90.40
8178;DHT22;4130;48.740;9.132;2022-07-22T10:57:42;33.00;90.30
8178;DHT22;4130;48.740;9.132;2022-07-22T11:00:09;33.30;90.40
8178;DHT22;4130;48.740;9.132;2022-07-22T11:02:38;33.80;89.60
8178;DHT22;4130;48.740;9.132;2022-07-22T11:05:06;33.70;87.50
8178;DHT22;4130;48.740;9.132;2022-07-22T11:07:34;33.50;89.80
8178;DHT22;4130;48.740;9.132;2022-07-22T11:10:15;33.60;86.90
8178;DHT22;4130;48.740;9.132;2022-07-22T11:12:42;34.00;86.70
8178;DHT22;4130;48.740;9.132;2022-07-22T11:15:10;33.80;87.00
8178;DHT22;4130;48.740;9.132;2022-07-22T11:17:39;34.20;86.50
8178;DHT22;4130;48.740;9.132;2022-07-22T11:20:08;34.00;86.50
8178;DHT22;4130;48.740;9.132;2022-07-22T11:22:35;34.20;85.00
8178;DHT22;4130;48.740;9.132;2022-07-22T11:25:05;34.00;84.10
8178;DHT22;4130;48.740;9.132;2022-07-22T11:27:32;34.20;83.70
8178;DHT22;4130;48.740;9.132;2022-07-22T11:29:59;34.40;84.10
8178;DHT22;4130;48.740;9.132;2022-07-22T11:32:29;34.70;84.20
8178;DHT22;4130;48.740;9.132;2022-07-22T11:35:00;34.60;83.40
8178;DHT22;4130;48.740;9.132;2022-07-22T11:37:27;34.70;81.60
8178;DHT22;4130;48.740;9.132;2022-07-22T11:40:00;34.70;81.10
8178;DHT22;4130;48.740;9.132;2022-07-22T11:42:27;34.30;83.40
8178;DHT22;4130;48.740;9.132;2022-07-22T11:44:54;34.40;82.60
8178;DHT22;4130;48.740;9.132;2022-07-22T11:47:21;34.40;82.70
8178;DHT22;4130;48.740;9.132;2022-07-22T11:49:48;33.80;81.40
8178;DHT22;4130;48.740;9.132;2022-07-22T11:52:16;33.80;82.60
8178;DHT22;4130;48.740;9.132;2022-07-22T11:54:44;33.80;81.70
8178;DHT22;4130;48.740;9.132;2022-07-22T11:57:12;33.90;81.60
8178;DHT22;4130;48.740;9.132;2022-07-22T11:59:39;34.00;82.70
8178;DHT22;4130;48.740;9.132;2022-07-22T12:02:07;34.20;80.80
8178;DHT22;4130;48.740;9.132;2022-07-22T12:04:37;34.20;81.70
8178;DHT22;4130;48.740;9.132;2022-07-22T12:07:05;34.10;82.10
8178;DHT22;4130;48.740;9.132;2022-07-22T12:09:35;34.30;81.90
8178;DHT22;4130;48.740;9.132;2022-07-22T12:12:03;34.50;82.20
8178;DHT22;4130;48.740;9.132;2022-07-22T12:14:33;34.50;82.20
8178;DHT22;4130;48.740;9.132;2022-07-22T12:17:01;34.50;81.70
8178;DHT22;4130;48.740;9.132;2022-07-22T12:19:32;34.80;81.90
8178;DHT22;4130;48.740;9.132;2022-07-22T12:22:00;35.00;81.30
8178;DHT22;4130;48.740;9.132;2022-07-22T12:24:29;35.20;81.80
8178;DHT22;4130;48.740;9.132;2022-07-22T12:27:00;34.90;81.90
8178;DHT22;4130;48.740;9.132;2022-07-22T12:29:30;35.10;81.30
8178;DHT22;4130;48.740;9.132;2022-07-22T12:32:00;35.10;78.90
8178;DHT22;4130;48.740;9.132;2022-07-22T12:34:32;34.60;80.10
8178;DHT22;4130;48.740;9.132;2022-07-22T12:37:00;34.40;80.60
8178;DHT22;4130;48.740;9.132;2022-07-22T12:39:29;34.30;80.30
8178;DHT22;4130;48.740;9.132;2022-07-22T12:41:57;34.00;80.20
8178;DHT22;4130;48.740;9.132;2022-07-22T12:44:25;33.80;80.90
8178;DHT22;4130;48.740;9.132;2022-07-22T12:46:54;33.50;80.80
8178;DHT22;4130;48.740;9.132;2022-07-22T12:49:22;33.40;82.10
8178;DHT22;4130;48.740;9.132;2022-07-22T12:52:07;33.50;81.70
8178;DHT22;4130;48.740;9.132;2022-07-22T12:54:37;33.70;81.90
8178;DHT22;4130;48.740;9.132;2022-07-22T12:57:09;34.10;80.10
8178;DHT22;4130;48.740;9.132;2022-07-22T12:59:36;34.30;81.40
8178;DHT22;4130;48.740;9.132;2022-07-22T13:02:03;34.50;81.30
8178;DHT22;4130;48.740;9.132;2022-07-22T13:04:31;34.90;81.70
8178;DHT22;4130;48.740;9.132;2022-07-22T13:06:57;34.90;79.40
8178;DHT22;4130;48.740;9.132;2022-07-22T13:09:24;35.00;78.50
8178;DHT22;4130;48.740;9.132;2022-07-22T13:11:51;35.00;77.90
8178;DHT22;4130;48.740;9.132;2022-07-22T13:14:19;35.00;79.50
8178;DHT22;4130;48.740;9.132;2022-07-22T13:16:46;35.00;78.40
8178;DHT22;4130;48.740;9.132;2022-07-22T13:19:13;34.90;77.80
8178;DHT22;4130;48.740;9.132;2022-07-22T13:21:40;34.90;78.70
8178;DHT22;4130;48.740;9.132;2022-07-22T13:24:07;35.00;78.30
8178;DHT22;4130;48.740;9.132;2022-07-22T13:26:34;35.00;78.40
8178;DHT22;4130;48.740;9.132;2022-07-22T13:29:01;34.80;77.40
8178;DHT22;4130;48.740;9.132;2022-07-22T13:31:29;34.70;78.50
8178;DHT22;4130;48.740;9.132;2022-07-22T13:33:57;34.10;76.90
8178;DHT22;4130;48.740;9.132;2022-07-22T13:36:24;33.60;79.60
8178;DHT22;4130;48.740;9.132;2022-07-22T13:38:54;33.30;80.50
8178;DHT22;4130;48.740;9.132;2022-07-22T13:41:21;33.00;78.80
8178;DHT22;4130;48.740;9.132;2022-07-22T13:43:47;32.90;79.70
8178;DHT22;4130;48.740;9.132;2022-07-22T13:46:16;32.60;79.70
8178;DHT22;4130;48.740;9.132;2022-07-22T13:48:45;32.30;81.60
8178;DHT22;4130;48.740;9.132;2022-07-22T13:51:12;32.20;80.90
8178;DHT22;4130;48.740;9.132;2022-07-22T13:53:40;32.00;80.80
8178;DHT22;4130;48.740;9.132;2022-07-22T13:56:09;31.90;79.80
8178;DHT22;4130;48.740;9.132;2022-07-22T13:58:37;31.80;79.90
8178;DHT22;4130;48.740;9.132;2022-07-22T14:01:06;31.60;81.00
8178;DHT22;4130;48.740;9.132;2022-07-22T14:03:33;31.60;82.00
8178;DHT22;4130;48.740;9.132;2022-07-22T14:06:01;31.50;80.60
8178;DHT22;4130;48.740;9.132;2022-07-22T14:08:28;31.50;81.20
8178;DHT22;4130;48.740;9.132;2022-07-22T14:10:55;31.50;81.50
8178;DHT22;4130;48.740;9.132;2022-07-22T14:13:22;31.50;80.80
8178;DHT22;4130;48.740;9.132;2022-07-22T14:15:49;31.60;82.10
8178;DHT22;4130;48.740;9.132;2022-07-22T14:18:16;31.50;79.20
8178;DHT22;4130;48.740;9.132;2022-07-22T14:20:43;31.40;79.90
8178;DHT22;4130;48.740;9.132;2022-07-22T14:23:11;31.50;80.70
8178;DHT22;4130;48.740;9.132;2022-07-22T14:25:39;31.50;79.50
8178;DHT22;4130;48.740;9.132;2022-07-22T14:28:06;31.60;80.90
8178;DHT22;4130;48.740;9.132;2022-07-22T14:30:33;31.60;80.00
8178;DHT22;4130;48.740;9.132;2022-07-22T14:33:02;31.60;79.50
8178;DHT22;4130;48.740;9.132;2022-07-22T14:35:29;31.70;79.80
8178;DHT22;4130;48.740;9.132;2022-07-22T14:37:59;31.80;80.70
8178;DHT22;4130;48.740;9.132;2022-07-22T14:40:27;31.80;80.60
8178;DHT22;4130;48.740;9.132;2022-07-22T14:42:54;31.80;80.60
8178;DHT22;4130;48.740;9.132;2022-07-22T14:45:21;31.80;80.40
8178;DHT22;4130;48.740;9.132;2022-07-22T14:47:48;31.70;80.20
8178;DHT22;4130;48.740;9.132;2022-07-22T14:50:14;31.70;79.90
8178;DHT22;4130;48.740;9.132;2022-07-22T14:52:41;31.70;79.80
8178;DHT22;4130;48.740;9.132;2022-07-22T14:55:08;31.80;79.40
8178;DHT22;4130;48.740;9.132;2022-07-22T14:57:36;31.90;80.80
8178;DHT22;4130;48.740;9.132;2022-07-22T15:00:04;32.00;80.70
8178;DHT22;4130;48.740;9.132;2022-07-22T15:02:32;31.90;79.80
8178;DHT22;4130;48.740;9.132;2022-07-22T15:04:59;31.90;80.10
8178;DHT22;4130;48.740;9.132;2022-07-22T15:07:25;31.80;79.80
8178;DHT22;4130;48.740;9.132;2022-07-22T15:09:52;31.80;80.50
8178;DHT22;4130;48.740;9.132;2022-07-22T15:12:19;31.90;80.40
8178;DHT22;4130;48.740;9.132;2022-07-22T15:14:48;31.90;79.90
8178;DHT22;4130;48.740;9.132;2022-07-22T15:17:14;32.00;79.40
8178;DHT22;4130;48.740;9.132;2022-07-22T15:19:41;31.90;80.60
8178;DHT22;4130;48.740;9.132;2022-07-22T15:22:08;32.00;79.30
8178;DHT22;4130;48.740;9.132;2022-07-22T15:24:35;31.80;78.80
8178;DHT22;4130;48.740;9.132;2022-07-22T15:27:02;31.90;79.40
8178;DHT22;4130;48.740;9.132;2022-07-22T15:29:29;32.00;80.90
8178;DHT22;4130;48.740;9.132;2022-07-22T15:31:57;32.00;80.00
8178;DHT22;4130;48.740;9.132;2022-07-22T15:34:24;31.90;80.60
8178;DHT22;4130;48.740;9.132;2022-07-22T15:36:51;31.90;78.80
8178;DHT22;4130;48.740;9.132;2022-07-22T15:39:19;32.00;81.00
8178;DHT22;4130;48.740;9.132;2022-07-22T15:41:53;32.20;79.90
8178;DHT22;4130;48.740;9.132;2022-07-22T15:44:19;32.40;79.40
8178;DHT22;4130;48.740;9.132;2022-07-22T15:46:46;32.50;79.00
8178;DHT22;4130;48.740;9.132;2022-07-22T15:49:15;32.60;79.30
8178;DHT22;4130;48.740;9.132;2022-07-22T15:51:42;32.70;78.10
8178;DHT22;4130;48.740;9.132;2022-07-22T15:54:08;32.50;78.10
8178;DHT22;4130;48.740;9.132;2022-07-22T15:56:35;32.40;79.10
8178;DHT22;4130;48.740;9.132;2022-07-22T15:59:02;32.30;78.50
8178;DHT22;4130;48.740;9.132;2022-07-22T16:01:46;32.30;78.90
8178;DHT22;4130;48.740;9.132;2022-07-22T16:04:15;32.40;78.80
8178;DHT22;4130;48.740;9.132;2022-07-22T16:06:42;32.40;78.80
8178;DHT22;4130;48.740;9.132;2022-07-22T16:09:09;32.30;78.40
8178;DHT22;4130;48.740;9.132;2022-07-22T16:11:36;32.20;77.90